This is the latest recevied weather packets stored in our database for station/object F4LNO-10. If no packets are shown the sender has not sent any weather packets the latest 10 day(s).
| Time | Temp. | Humidity | Pressure | Rain* | Wind** | Luminosity | Snow |
|---|---|---|---|---|---|---|---|
| 1777869370 | 22.22° C | 61% | 1017 hPa | - | - | - | - |
| 1777868469 | 22.22° C | 59% | 1017.1 hPa | - | - | - | - |
| 1777867569 | 22.78° C | 61% | 1017.2 hPa | - | - | - | - |
| 1777866668 | 22.78° C | 59% | 1017.5 hPa | - | - | - | - |
| 1777865767 | 22.78° C | 59% | 1017.5 hPa | - | - | - | - |
| 1777864866 | 20° C | 65% | 1017.3 hPa | - | - | - | - |
| 1777863965 | 21.11° C | 62% | 1017.1 hPa | - | - | - | - |
| 1777863064 | 20° C | 65% | 1017.2 hPa | - | - | - | - |
| 1777862164 | 22.22° C | 60% | 1017.1 hPa | - | - | - | - |
| 1777861263 | 22.78° C | 59% | 1017.2 hPa | - | - | - | - |
| 1777860362 | 22.78° C | 60% | 1017.3 hPa | - | - | - | - |
| 1777859460 | 22.78° C | 60% | 1017.4 hPa | - | - | - | - |
| 1777858581 | 22.78° C | 61% | 1017.2 hPa | - | - | - | - |
| 1777857680 | 22.78° C | 60% | 1017.1 hPa | - | - | - | - |
| 1777856778 | 22.78° C | 61% | 1017.5 hPa | - | - | - | - |
| 1777855877 | 22.78° C | 60% | 1017.5 hPa | - | - | - | - |
| 1777854976 | 22.78° C | 60% | 1017.7 hPa | - | - | - | - |
| 1777854076 | 22.78° C | 61% | 1017.8 hPa | - | - | - | - |
| 1777853175 | 22.78° C | 61% | 1017.9 hPa | - | - | - | - |
| 1777852274 | 22.78° C | 60% | 1017.9 hPa | - | - | - | - |
| 1777851373 | 22.78° C | 60% | 1018.1 hPa | - | - | - | - |
| 1777850472 | 22.78° C | 61% | 1018.1 hPa | - | - | - | - |
| 1777849571 | 22.78° C | 61% | 1018.2 hPa | - | - | - | - |
| 1777848671 | 22.78° C | 61% | 1018.3 hPa | - | - | - | - |
| 1777847770 | 23.33° C | 60% | 1018.3 hPa | - | - | - | - |
* Rain since midnight (hover to see other rain measurements)
** Current wind speed in m/s (hover to see current wind gust speed)